createdAt,value
2023-08-17T00:01:03.002Z,30.18
2023-08-17T00:06:08.428Z,29.85
2023-08-17T00:11:12.257Z,29.75
2023-08-17T00:16:19.016Z,29.54
2023-08-17T00:21:24.562Z,29.25
2023-08-17T00:26:28.350Z,29.06
2023-08-17T00:31:32.179Z,29.01
2023-08-17T00:36:37.623Z,29.04
2023-08-17T00:41:41.337Z,28.91
2023-08-17T00:46:45.225Z,28.69
2023-08-17T00:51:50.964Z,28.64
2023-08-17T00:56:55.412Z,28.58
2023-08-17T01:01:59.201Z,28.67
2023-08-17T01:07:04.634Z,28.45
2023-08-17T01:12:15.445Z,28.27
2023-08-17T01:17:25.368Z,28.18
2023-08-17T01:22:32.253Z,28.20
2023-08-17T01:27:41.241Z,28.08
2023-08-17T01:32:50.457Z,28.04
2023-08-17T01:37:57.376Z,27.96
2023-08-17T01:43:03.438Z,27.82
2023-08-17T01:48:07.773Z,27.64
2023-08-17T01:53:10.843Z,27.63
2023-08-17T01:58:16.291Z,27.56
2023-08-17T02:03:20.040Z,27.37
2023-08-17T02:08:23.860Z,27.19
2023-08-17T02:13:29.257Z,27.03
2023-08-17T02:18:33.102Z,26.89
2023-08-17T02:23:36.944Z,26.61
2023-08-17T02:28:42.375Z,26.27
2023-08-17T02:33:46.096Z,26.04
2023-08-17T02:38:49.818Z,25.87
2023-08-17T02:43:55.188Z,25.58
2023-08-17T02:48:58.952Z,25.48
2023-08-17T02:54:03.471Z,25.24
2023-08-17T02:59:08.145Z,25.08
2023-08-17T03:04:11.903Z,25.04
2023-08-17T03:09:15.630Z,24.99
2023-08-17T03:14:21.036Z,24.90
2023-08-17T03:19:24.781Z,24.92
2023-08-17T03:24:28.760Z,24.62
2023-08-17T03:29:34.205Z,24.41
2023-08-17T03:34:38.615Z,24.45
2023-08-17T03:39:42.421Z,24.32
2023-08-17T03:44:49.260Z,24.36
2023-08-17T03:49:53.739Z,24.20
2023-08-17T03:54:57.491Z,24.05
2023-08-17T04:00:02.905Z,23.95
2023-08-17T04:05:07.680Z,23.36
2023-08-17T04:10:11.055Z,23.06
2023-08-17T04:15:16.556Z,22.83
2023-08-17T04:20:20.386Z,22.49
2023-08-17T04:25:24.133Z,22.56
2023-08-17T04:30:29.582Z,22.64
2023-08-17T04:35:34.062Z,22.60
2023-08-17T04:40:38.566Z,22.45
2023-08-17T04:45:44.074Z,22.47
2023-08-17T04:50:47.966Z,22.58
2023-08-17T04:55:51.793Z,22.44
2023-08-17T05:00:57.179Z,22.30
2023-08-17T05:06:00.930Z,22.01
2023-08-17T05:11:04.723Z,21.89
2023-08-17T05:16:10.119Z,21.81
2023-08-17T05:21:13.901Z,21.63
2023-08-17T05:26:17.640Z,21.65
2023-08-17T05:31:23.076Z,21.84
2023-08-17T05:36:26.872Z,22.11
2023-08-17T05:41:30.618Z,22.23
2023-08-17T05:46:36.107Z,22.08
2023-08-17T05:51:39.897Z,21.99
2023-08-17T05:56:43.634Z,22.08
2023-08-17T06:01:49.021Z,22.11
2023-08-17T06:06:52.817Z,22.24
2023-08-17T06:11:56.562Z,22.14
2023-08-17T06:17:01.993Z,21.76
2023-08-17T06:22:05.815Z,21.65
2023-08-17T06:27:09.522Z,21.73
2023-08-17T06:32:14.942Z,21.43
2023-08-17T06:37:18.648Z,21.18
2023-08-17T06:42:22.407Z,21.19
2023-08-17T06:47:28.269Z,21.20
2023-08-17T06:52:32.282Z,21.13
2023-08-17T06:57:36.715Z,21.15
2023-08-17T07:02:52.815Z,21.20
2023-08-17T07:07:58.106Z,21.10
2023-08-17T07:13:01.908Z,20.72
2023-08-17T07:18:07.787Z,20.66
2023-08-17T07:23:11.566Z,20.54
2023-08-17T07:28:15.253Z,21.00
2023-08-17T07:33:20.653Z,21.09
2023-08-17T07:38:24.476Z,20.92
2023-08-17T07:43:28.188Z,20.73
2023-08-17T07:48:33.601Z,20.33
2023-08-17T07:53:37.389Z,20.43
2023-08-17T07:58:41.090Z,20.56
2023-08-17T08:03:46.455Z,20.61
2023-08-17T08:08:50.209Z,20.64
2023-08-17T08:13:53.935Z,20.66
2023-08-17T08:18:59.761Z,20.70
2023-08-17T08:24:04.017Z,20.68
2023-08-17T08:29:07.746Z,20.47
2023-08-17T08:34:13.100Z,20.29
2023-08-17T08:39:16.886Z,20.15
2023-08-17T08:44:21.045Z,20.09
2023-08-17T08:49:27.306Z,20.10
2023-08-17T08:54:37.949Z,20.15
2023-08-17T08:59:43.092Z,20.13
2023-08-17T09:04:48.572Z,19.92
2023-08-17T09:09:53.023Z,19.83
2023-08-17T09:14:57.306Z,19.98
2023-08-17T09:20:03.148Z,19.93
2023-08-17T09:25:08.108Z,19.72
2023-08-17T09:30:19.413Z,19.65
2023-08-17T09:35:27.169Z,19.39
2023-08-17T09:40:31.819Z,19.39
2023-08-17T09:45:35.633Z,19.32
2023-08-17T09:50:41.001Z,19.21
2023-08-17T09:55:44.330Z,19.30
2023-08-17T10:00:51.070Z,19.54
2023-08-17T10:06:05.249Z,19.53
2023-08-17T10:11:09.258Z,19.17
2023-08-17T10:16:30.031Z,19.08
2023-08-17T10:21:45.739Z,18.99
2023-08-17T10:31:59.108Z,18.76
2023-08-17T10:37:05.332Z,18.74
2023-08-17T10:42:09.144Z,18.81
2023-08-17T10:47:23.308Z,18.92
2023-08-17T10:52:33.092Z,18.98
2023-08-17T10:57:38.771Z,18.98
2023-08-17T11:02:42.763Z,18.99
2023-08-17T11:07:48.125Z,18.96
2023-08-17T11:12:54.767Z,19.06
2023-08-17T11:17:58.518Z,19.04
2023-08-17T11:23:04.324Z,19.12
2023-08-17T11:28:09.832Z,18.81
2023-08-17T11:33:12.930Z,18.92
2023-08-17T11:38:18.369Z,18.60
2023-08-17T11:43:23.522Z,18.41
2023-08-17T11:48:27.418Z,18.44
2023-08-17T11:53:38.269Z,18.41
2023-08-17T11:58:47.247Z,18.28
2023-08-17T12:03:51.341Z,18.19
2023-08-17T12:08:56.876Z,18.08
2023-08-17T12:14:01.361Z,18.03
2023-08-17T12:19:07.252Z,18.09
2023-08-17T12:24:13.440Z,18.11
2023-08-17T12:29:17.156Z,18.09
2023-08-17T12:34:20.833Z,18.27
2023-08-17T12:39:26.256Z,18.25
2023-08-17T12:44:30.052Z,18.15
2023-08-17T12:49:39.139Z,18.03
2023-08-17T12:54:45.032Z,17.96
2023-08-17T12:59:48.824Z,18.05
2023-08-17T13:04:52.531Z,18.04
2023-08-17T13:09:58.896Z,18.03
2023-08-17T13:15:02.625Z,17.97
2023-08-17T13:20:07.380Z,17.96
2023-08-17T13:25:12.922Z,17.61
2023-08-17T13:30:16.844Z,17.47
2023-08-17T13:35:21.382Z,17.42
2023-08-17T13:40:27.097Z,17.47
2023-08-17T13:45:30.807Z,17.48
2023-08-17T13:50:34.607Z,17.64
2023-08-17T13:55:40.223Z,17.61
2023-08-17T14:00:43.204Z,17.72
2023-08-17T14:05:46.933Z,17.72
2023-08-17T14:10:52.698Z,17.77
2023-08-17T14:15:59.221Z,17.81
2023-08-17T14:21:03.025Z,17.85
2023-08-17T14:26:08.462Z,18.05
2023-08-17T14:31:12.418Z,18.27
2023-08-17T14:36:19.729Z,18.51
2023-08-17T14:41:25.565Z,18.74
2023-08-17T14:46:30.178Z,19.00
2023-08-17T14:51:39.517Z,19.49
2023-08-17T14:56:44.933Z,19.89
2023-08-17T15:01:47.914Z,20.17
2023-08-17T15:06:51.646Z,20.32
2023-08-17T15:11:56.982Z,20.80
2023-08-17T15:17:01.900Z,21.20
2023-08-17T15:22:05.726Z,21.44
2023-08-17T15:27:11.122Z,21.85
2023-08-17T15:32:14.096Z,22.11
2023-08-17T15:37:17.849Z,22.81
2023-08-17T15:42:23.335Z,23.42
2023-08-17T15:47:27.439Z,23.78
2023-08-17T15:52:31.419Z,24.48
2023-08-17T15:57:36.799Z,24.79
2023-08-17T16:02:40.656Z,25.29
2023-08-17T16:07:44.530Z,25.78
2023-08-17T16:12:50.636Z,26.02
2023-08-17T16:17:54.489Z,26.36
2023-08-17T16:22:58.386Z,26.68
2023-08-17T16:28:03.789Z,26.94
2023-08-17T16:33:07.628Z,27.16
2023-08-17T16:38:11.621Z,27.52
2023-08-17T16:43:17.027Z,27.66
2023-08-17T16:48:24.619Z,27.61
2023-08-17T16:53:28.705Z,27.74
2023-08-17T16:58:34.057Z,27.96
2023-08-17T17:03:37.823Z,27.76
2023-08-17T17:08:41.664Z,27.94
2023-08-17T17:13:47.170Z,27.88
2023-08-17T17:18:50.905Z,28.14
2023-08-17T17:23:54.695Z,28.23
2023-08-17T17:29:00.104Z,28.69
2023-08-17T17:34:03.882Z,28.56
2023-08-17T17:39:07.790Z,28.61
2023-08-17T17:44:13.969Z,28.81
2023-08-17T17:49:17.702Z,28.89
2023-08-17T17:54:21.430Z,28.81
2023-08-17T17:59:26.859Z,28.79
2023-08-17T18:04:30.606Z,29.12
2023-08-17T18:09:37.424Z,29.16
2023-08-17T18:14:42.852Z,29.14
2023-08-17T18:19:46.565Z,28.89
2023-08-17T18:24:50.344Z,28.60
2023-08-17T18:29:55.706Z,29.05
2023-08-17T18:34:59.519Z,29.22
2023-08-17T18:40:03.447Z,29.07
2023-08-17T18:45:09.972Z,29.46
2023-08-17T18:50:13.755Z,29.30
2023-08-17T18:55:17.461Z,29.15
2023-08-17T19:00:22.993Z,29.20
2023-08-17T19:05:26.833Z,29.38
2023-08-17T19:10:30.610Z,29.22
2023-08-17T19:15:36.018Z,29.27
2023-08-17T19:20:39.867Z,29.43
2023-08-17T19:25:43.691Z,29.46
2023-08-17T19:30:49.073Z,29.46
2023-08-17T19:35:53.707Z,29.49
2023-08-17T19:40:57.403Z,29.78
2023-08-17T19:46:02.808Z,29.85
2023-08-17T19:51:06.632Z,30.21
2023-08-17T19:56:11.056Z,30.48
2023-08-17T20:01:16.491Z,30.32
2023-08-17T20:06:20.226Z,30.30
2023-08-17T20:11:23.979Z,30.52
2023-08-17T20:16:29.386Z,30.23
2023-08-17T20:21:33.157Z,30.66
2023-08-17T20:26:36.970Z,30.70
2023-08-17T20:31:42.443Z,31.13
2023-08-17T20:36:46.292Z,31.28
2023-08-17T20:41:50.026Z,31.59
2023-08-17T20:46:57.643Z,32.06
2023-08-17T20:52:02.167Z,32.14
2023-08-17T20:57:06.258Z,32.15
2023-08-17T21:02:11.686Z,31.91
2023-08-17T21:07:16.630Z,32.10
2023-08-17T21:12:20.348Z,31.74
2023-08-17T21:17:27.485Z,31.32
2023-08-17T21:22:31.501Z,31.16
2023-08-17T21:27:35.298Z,30.95
2023-08-17T21:32:40.884Z,31.18
2023-08-17T21:37:46.641Z,31.13
2023-08-17T21:42:50.377Z,30.54
2023-08-17T21:47:55.833Z,30.98
2023-08-17T21:52:59.581Z,30.66
2023-08-17T21:58:03.320Z,31.03
2023-08-17T22:03:08.892Z,31.12
2023-08-17T22:08:12.846Z,30.87
2023-08-17T22:13:15.935Z,31.00
2023-08-17T22:18:21.305Z,30.72
2023-08-17T22:23:25.097Z,30.88
2023-08-17T22:28:28.821Z,30.71
2023-08-17T22:33:35.860Z,30.93
2023-08-17T22:38:39.617Z,31.21
2023-08-17T22:43:43.330Z,31.50
2023-08-17T22:48:48.786Z,31.59
2023-08-17T22:53:52.638Z,31.50
2023-08-17T22:58:55.567Z,31.55
2023-08-17T23:04:01.933Z,31.45
2023-08-17T23:09:06.019Z,31.19
2023-08-17T23:14:09.745Z,31.09
2023-08-17T23:19:15.081Z,30.93
2023-08-17T23:24:19.747Z,30.76
2023-08-17T23:29:24.601Z,30.59
2023-08-17T23:34:29.958Z,30.34
2023-08-17T23:39:33.636Z,30.12
2023-08-17T23:44:37.296Z,29.96
2023-08-17T23:49:42.650Z,29.80
2023-08-17T23:54:46.287Z,29.79
2023-08-17T23:59:49.967Z,29.48
